createdAt,value
2023-05-05T00:01:34.996Z,100603.50
2023-05-05T00:04:02.805Z,100607.91
2023-05-05T00:06:31.328Z,100608.03
2023-05-05T00:08:59.140Z,100595.94
2023-05-05T00:11:27.117Z,100595.34
2023-05-05T00:13:56.203Z,100593.31
2023-05-05T00:16:23.924Z,100593.56
2023-05-05T00:18:51.703Z,100597.88
2023-05-05T00:21:19.404Z,100590.31
2023-05-05T00:23:47.120Z,100585.28
2023-05-05T00:26:14.891Z,100589.94
2023-05-05T00:28:42.609Z,100593.03
2023-05-05T00:31:11.746Z,100592.44
2023-05-05T00:33:39.551Z,100588.25
2023-05-05T00:36:07.969Z,100590.97
2023-05-05T00:38:35.815Z,100595.53
2023-05-05T00:41:03.581Z,100592.19
2023-05-05T00:43:31.303Z,100591.34
2023-05-05T00:46:03.138Z,100584.91
2023-05-05T00:48:32.875Z,100584.66
2023-05-05T00:51:00.805Z,100579.19
2023-05-05T00:53:29.640Z,100580.94
2023-05-05T00:55:57.400Z,100585.16
2023-05-05T00:58:25.115Z,100587.66
2023-05-05T01:00:52.905Z,100577.97
2023-05-05T01:03:20.686Z,100576.53
2023-05-05T01:05:56.802Z,100583.00
2023-05-05T01:08:33.962Z,100582.63
2023-05-05T01:11:04.535Z,100582.25
2023-05-05T01:13:38.772Z,100580.31
2023-05-05T01:16:13.346Z,100576.25
2023-05-05T01:18:47.925Z,100583.56
2023-05-05T01:21:24.432Z,100585.06
2023-05-05T01:24:17.513Z,100582.56
2023-05-05T01:26:53.869Z,100582.94
2023-05-05T01:29:36.123Z,100586.84
2023-05-05T01:32:09.309Z,100587.19
2023-05-05T01:34:40.293Z,100589.09
2023-05-05T01:37:12.652Z,100603.41
2023-05-05T01:39:42.067Z,100596.69
2023-05-05T01:42:13.849Z,100597.03
2023-05-05T01:44:43.741Z,100582.75
2023-05-05T01:47:14.115Z,100595.16
2023-05-05T01:49:42.845Z,100605.06
2023-05-05T01:52:11.540Z,100601.09
2023-05-05T01:54:40.629Z,100599.75
2023-05-05T01:57:08.670Z,100604.31
2023-05-05T01:59:37.610Z,100609.47
2023-05-05T02:02:05.544Z,100603.50
2023-05-05T02:04:36.450Z,100608.84
2023-05-05T02:07:05.032Z,100605.47
2023-05-05T02:09:33.744Z,100610.84
2023-05-05T02:12:02.289Z,100614.66
2023-05-05T02:14:30.809Z,100622.84
2023-05-05T02:16:59.503Z,100624.97
2023-05-05T02:19:30.941Z,100629.78
2023-05-05T02:22:00.354Z,100636.53
2023-05-05T02:24:28.226Z,100638.66
2023-05-05T02:26:57.529Z,100637.91
2023-05-05T02:29:29.817Z,100637.91
2023-05-05T02:32:02.647Z,100631.50
2023-05-05T02:34:32.413Z,100632.84
2023-05-05T02:37:04.711Z,100634.94
2023-05-05T02:39:34.142Z,100635.25
2023-05-05T02:42:04.048Z,100646.78
2023-05-05T02:44:34.229Z,100640.09
2023-05-05T02:47:03.768Z,100645.88
2023-05-05T02:49:31.837Z,100645.66
2023-05-05T02:52:00.951Z,100652.56
2023-05-05T02:54:31.982Z,100656.66
2023-05-05T02:56:59.975Z,100655.72
2023-05-05T02:59:36.664Z,100657.50
2023-05-05T03:02:16.286Z,100661.19
2023-05-05T03:04:47.605Z,100667.38
2023-05-05T03:07:22.320Z,100663.28
2023-05-05T03:09:55.772Z,100652.50
2023-05-05T03:12:28.670Z,100659.78
2023-05-05T03:14:57.032Z,100661.06
2023-05-05T03:17:26.278Z,100667.78
2023-05-05T03:19:54.329Z,100660.34
2023-05-05T03:22:23.418Z,100658.25
2023-05-05T03:24:51.240Z,100653.34
2023-05-05T03:27:20.346Z,100660.47
2023-05-05T03:29:47.890Z,100659.72
2023-05-05T03:32:15.715Z,100662.22
2023-05-05T03:34:43.458Z,100652.16
2023-05-05T03:37:11.155Z,100659.63
2023-05-05T03:39:40.367Z,100665.41
2023-05-05T03:42:08.210Z,100663.19
2023-05-05T03:44:36.044Z,100665.28
2023-05-05T03:47:03.797Z,100663.81
2023-05-05T03:49:31.597Z,100666.63
2023-05-05T03:51:59.336Z,100667.84
2023-05-05T03:54:27.051Z,100663.75
2023-05-05T03:56:56.578Z,100666.50
2023-05-05T03:59:24.401Z,100668.38
2023-05-05T04:01:52.082Z,100670.25
2023-05-05T04:04:19.934Z,100672.13
2023-05-05T04:06:48.043Z,100671.31
2023-05-05T04:09:15.918Z,100673.19
2023-05-05T04:11:43.662Z,100675.91
2023-05-05T04:14:12.793Z,100680.31
2023-05-05T04:16:40.445Z,100674.00
2023-05-05T04:19:08.384Z,100685.75
2023-05-05T04:21:36.669Z,100679.66
2023-05-05T04:24:04.564Z,100687.44
2023-05-05T04:26:32.410Z,100698.00
2023-05-05T04:29:00.220Z,100704.38
2023-05-05T04:31:29.440Z,100707.50
2023-05-05T04:33:57.290Z,100712.09
2023-05-05T04:36:24.995Z,100717.31
2023-05-05T04:38:52.810Z,100715.56
2023-05-05T04:41:21.360Z,100718.06
2023-05-05T04:43:49.099Z,100713.38
2023-05-05T04:46:16.919Z,100712.16
2023-05-05T04:48:46.032Z,100718.75
2023-05-05T04:51:13.856Z,100723.25
2023-05-05T04:53:41.629Z,100721.41
2023-05-05T04:56:09.424Z,100721.00
2023-05-05T04:58:37.125Z,100717.22
2023-05-05T05:01:04.901Z,100734.44
2023-05-05T05:03:32.985Z,100736.97
2023-05-05T05:06:02.324Z,100736.56
2023-05-05T05:08:30.099Z,100735.50
2023-05-05T05:10:57.803Z,100741.50
2023-05-05T05:13:25.640Z,100737.19
2023-05-05T05:15:53.498Z,100741.59
2023-05-05T05:18:21.212Z,100741.59
2023-05-05T05:20:48.935Z,100738.03
2023-05-05T05:23:18.064Z,100744.56
2023-05-05T05:25:45.948Z,100739.94
2023-05-05T05:28:13.694Z,100747.41
2023-05-05T05:30:42.580Z,100754.94
2023-05-05T05:33:10.847Z,100755.59
2023-05-05T05:35:38.708Z,100763.91
2023-05-05T05:38:06.486Z,100757.31
2023-05-05T05:40:35.606Z,100755.00
2023-05-05T05:43:04.052Z,100762.13
2023-05-05T05:45:31.862Z,100764.03
2023-05-05T05:47:59.697Z,100755.31
2023-05-05T05:50:28.703Z,100757.81
2023-05-05T05:52:56.395Z,100757.59
2023-05-05T05:55:24.103Z,100756.63
2023-05-05T05:57:53.246Z,100758.16
2023-05-05T06:00:21.291Z,100762.31
2023-05-05T06:02:49.141Z,100762.25
2023-05-05T06:05:16.952Z,100764.09
2023-05-05T06:07:44.675Z,100758.16
2023-05-05T06:10:26.737Z,100766.53
2023-05-05T06:12:56.901Z,100758.31
2023-05-05T06:15:25.813Z,100755.13
2023-05-05T06:17:53.524Z,100757.13
2023-05-05T06:20:21.332Z,100755.34
2023-05-05T06:22:49.297Z,100753.09
2023-05-05T06:25:17.283Z,100748.56
2023-05-05T06:27:45.059Z,100744.41
2023-05-05T06:30:15.688Z,100757.56
2023-05-05T06:32:43.507Z,100747.75
2023-05-05T06:35:11.610Z,100750.78
2023-05-05T06:37:39.612Z,100756.16
2023-05-05T06:40:09.273Z,100759.63
2023-05-05T06:42:37.398Z,100752.56
2023-05-05T06:45:05.698Z,100757.78
2023-05-05T06:47:37.872Z,100756.56
2023-05-05T06:50:06.713Z,100769.72
2023-05-05T06:52:35.429Z,100766.34
2023-05-05T06:55:03.804Z,100774.38
2023-05-05T06:57:31.663Z,100780.56
2023-05-05T06:59:59.543Z,100784.38
2023-05-05T07:02:27.433Z,100787.03
2023-05-05T07:04:56.649Z,100785.22
2023-05-05T07:07:24.432Z,100778.41
2023-05-05T07:09:52.219Z,100787.88
2023-05-05T07:12:20.063Z,100797.31
2023-05-05T07:14:47.892Z,100792.28
2023-05-05T07:17:15.968Z,100799.03
2023-05-05T07:19:44.265Z,100798.06
2023-05-05T07:22:13.398Z,100800.34
2023-05-05T07:24:41.453Z,100797.53
2023-05-05T07:27:09.337Z,100807.13
2023-05-05T07:29:37.150Z,100810.97
2023-05-05T07:32:05.214Z,100812.41
2023-05-05T07:34:34.660Z,100811.41
2023-05-05T07:37:03.380Z,100812.56
2023-05-05T07:39:32.554Z,100812.38
2023-05-05T07:42:01.515Z,100810.22
2023-05-05T07:44:29.322Z,100820.22
2023-05-05T07:46:57.169Z,100814.50
2023-05-05T07:49:25.153Z,100808.66
2023-05-05T07:51:52.993Z,100803.06
2023-05-05T07:54:20.888Z,100804.72
2023-05-05T07:56:50.021Z,100802.47
2023-05-05T07:59:17.804Z,100804.03
2023-05-05T08:01:45.574Z,100805.84
2023-05-05T08:04:13.902Z,100799.47
2023-05-05T08:06:41.834Z,100795.28
2023-05-05T08:09:09.651Z,100802.44
2023-05-05T08:11:37.460Z,100798.59
2023-05-05T08:14:06.640Z,100807.63
2023-05-05T08:16:34.963Z,100801.28
2023-05-05T08:21:31.787Z,100806.94
2023-05-05T08:23:59.572Z,100801.09
2023-05-05T08:26:27.638Z,100801.59
2023-05-05T08:29:00.742Z,100802.94
2023-05-05T08:31:33.264Z,100805.22
2023-05-05T08:34:01.132Z,100811.38
2023-05-05T08:36:29.072Z,100811.59
2023-05-05T08:38:57.036Z,100806.19
2023-05-05T08:41:25.024Z,100803.84
2023-05-05T08:43:52.933Z,100812.84
2023-05-05T08:46:21.179Z,100794.47
2023-05-05T08:48:50.156Z,100798.94
2023-05-05T08:51:20.088Z,100799.84
2023-05-05T08:53:55.873Z,100803.00
2023-05-05T08:56:23.736Z,100804.47
2023-05-05T08:58:52.181Z,100802.78
2023-05-05T09:01:20.446Z,100801.47
2023-05-05T09:03:48.020Z,100800.41
2023-05-05T09:06:17.264Z,100804.59
2023-05-05T09:08:49.264Z,100802.75
2023-05-05T09:11:17.133Z,100795.25
2023-05-05T09:13:44.934Z,100802.28
2023-05-05T09:16:12.761Z,100803.59
2023-05-05T09:18:42.637Z,100809.63
2023-05-05T09:21:32.497Z,100808.59
2023-05-05T09:24:10.324Z,100810.78
2023-05-05T09:26:40.469Z,100817.25
2023-05-05T09:29:08.268Z,100807.59
2023-05-05T09:31:37.282Z,100806.25
2023-05-05T09:34:15.536Z,100811.25
2023-05-05T09:36:48.993Z,100816.63
2023-05-05T09:39:18.912Z,100808.25
2023-05-05T09:41:47.271Z,100810.47
2023-05-05T09:44:16.930Z,100810.00
2023-05-05T09:46:52.539Z,100794.03
2023-05-05T09:49:25.516Z,100806.25
2023-05-05T09:51:55.260Z,100811.28
2023-05-05T09:54:27.456Z,100808.78
2023-05-05T09:56:55.995Z,100810.94
2023-05-05T09:59:24.513Z,100807.28
2023-05-05T10:01:52.767Z,100811.94
2023-05-05T10:04:28.323Z,100808.28
2023-05-05T10:06:58.645Z,100807.25
2023-05-05T10:09:27.062Z,100803.28
2023-05-05T10:11:54.994Z,100800.63
2023-05-05T10:14:24.681Z,100811.63
2023-05-05T10:16:53.475Z,100807.94
2023-05-05T10:19:22.676Z,100808.25
2023-05-05T10:21:51.894Z,100814.78
2023-05-05T10:24:28.330Z,100799.28
2023-05-05T10:26:57.955Z,100797.94
2023-05-05T10:29:33.642Z,100785.56
2023-05-05T10:32:27.160Z,100778.97
2023-05-05T10:34:55.483Z,100779.63
2023-05-05T10:37:23.618Z,100773.63
2023-05-05T10:39:52.946Z,100772.59
2023-05-05T10:42:21.232Z,100770.91
2023-05-05T10:44:49.385Z,100763.13
2023-05-05T10:47:20.509Z,100765.41
2023-05-05T10:49:55.241Z,100751.25
2023-05-05T10:52:27.288Z,100760.25
2023-05-05T10:55:06.065Z,100755.78
2023-05-05T10:57:34.228Z,100750.94
2023-05-05T11:00:01.988Z,100745.16
2023-05-05T11:02:31.666Z,100747.94
2023-05-05T11:05:09.593Z,100739.22
2023-05-05T11:07:37.590Z,100734.16
2023-05-05T11:10:08.379Z,100738.78
2023-05-05T11:13:09.594Z,100733.44
2023-05-05T11:15:41.598Z,100721.16
2023-05-05T11:18:29.632Z,100724.41
2023-05-05T11:21:17.125Z,100715.75
2023-05-05T11:23:46.967Z,100725.38
2023-05-05T11:26:17.153Z,100728.97
2023-05-05T11:28:59.900Z,100724.66
2023-05-05T11:31:28.351Z,100726.00
2023-05-05T11:33:56.404Z,100721.00
2023-05-05T11:36:40.263Z,100735.22
2023-05-05T11:39:20.809Z,100717.47
2023-05-05T11:42:23.650Z,100725.03
2023-05-05T11:44:51.770Z,100727.38
2023-05-05T11:47:33.227Z,100722.94
2023-05-05T11:50:17.834Z,100712.13
2023-05-05T11:52:45.927Z,100720.63
2023-05-05T11:55:13.767Z,100716.75
2023-05-05T11:57:42.931Z,100717.44
2023-05-05T12:00:11.731Z,100713.84
2023-05-05T12:02:39.700Z,100722.59
2023-05-05T12:05:08.353Z,100719.75
2023-05-05T12:07:36.243Z,100723.84
2023-05-05T12:10:04.226Z,100733.09
2023-05-05T12:12:36.931Z,100726.53
2023-05-05T12:15:07.629Z,100734.63
2023-05-05T12:17:40.718Z,100733.25
2023-05-05T12:20:10.315Z,100737.16
2023-05-05T12:22:38.515Z,100736.47
2023-05-05T12:25:07.850Z,100735.66
2023-05-05T12:27:36.422Z,100730.03
2023-05-05T12:30:24.236Z,100740.63
2023-05-05T12:32:52.066Z,100746.38
2023-05-05T12:35:21.170Z,100737.13
2023-05-05T12:37:48.950Z,100739.53
2023-05-05T12:40:45.764Z,100750.38
2023-05-05T12:43:27.183Z,100753.22
2023-05-05T12:46:04.570Z,100762.72
2023-05-05T12:48:32.557Z,100761.41
2023-05-05T12:51:19.997Z,100757.28
2023-05-05T12:53:48.715Z,100763.03
2023-05-05T12:56:36.555Z,100760.22
2023-05-05T12:59:05.992Z,100751.88
2023-05-05T13:01:35.713Z,100748.69
2023-05-05T13:04:10.863Z,100749.28
2023-05-05T13:06:39.078Z,100747.63
2023-05-05T13:09:07.412Z,100748.56
2023-05-05T13:11:38.729Z,100740.22
2023-05-05T13:14:07.721Z,100735.94
2023-05-05T13:16:37.023Z,100739.84
2023-05-05T13:19:04.865Z,100728.09
2023-05-05T13:21:32.872Z,100722.25
2023-05-05T13:24:12.463Z,100724.44
2023-05-05T13:26:48.438Z,100726.13
2023-05-05T13:29:16.481Z,100724.97
2023-05-05T13:31:46.219Z,100721.34
2023-05-05T13:34:14.106Z,100727.75
2023-05-05T13:36:41.964Z,100724.13
2023-05-05T13:39:09.910Z,100731.69
2023-05-05T13:41:37.704Z,100727.56
2023-05-05T13:44:05.578Z,100731.00
2023-05-05T13:46:33.438Z,100728.69
2023-05-05T13:49:02.667Z,100721.41
2023-05-05T13:51:30.642Z,100723.22
2023-05-05T13:53:58.422Z,100721.66
2023-05-05T13:56:27.693Z,100734.69
2023-05-05T13:58:55.624Z,100725.81
2023-05-05T14:01:23.550Z,100739.47
2023-05-05T14:03:51.555Z,100734.59
2023-05-05T14:06:20.838Z,100739.63
2023-05-05T14:08:48.678Z,100736.91
2023-05-05T14:11:18.057Z,100742.97
2023-05-05T14:13:48.016Z,100750.88
2023-05-05T14:16:16.049Z,100750.47
2023-05-05T14:18:43.929Z,100749.16
2023-05-05T14:21:12.174Z,100754.50
2023-05-05T14:23:41.311Z,100766.44
2023-05-05T14:26:09.862Z,100761.75
2023-05-05T14:28:37.633Z,100763.88
2023-05-05T14:31:06.030Z,100776.28
2023-05-05T14:33:33.864Z,100807.75
2023-05-05T14:36:01.688Z,100827.78
2023-05-05T14:38:29.529Z,100810.47
2023-05-05T14:40:58.946Z,100779.34
2023-05-05T14:43:26.859Z,100806.38
2023-05-05T14:45:54.766Z,100809.94
2023-05-05T14:48:22.810Z,100794.84
2023-05-05T14:50:50.729Z,100797.50
2023-05-05T14:53:19.035Z,100803.59
2023-05-05T14:55:46.872Z,100813.25
2023-05-05T14:58:17.184Z,100817.22
2023-05-05T15:00:44.996Z,100820.91
2023-05-05T15:03:12.954Z,100820.19
2023-05-05T15:05:40.823Z,100819.22
2023-05-05T15:08:08.642Z,100820.94
2023-05-05T15:10:36.505Z,100823.75
2023-05-05T15:13:04.447Z,100818.03
2023-05-05T15:15:34.767Z,100816.53
2023-05-05T15:18:02.684Z,100814.53
2023-05-05T15:20:30.745Z,100830.38
2023-05-05T15:22:58.619Z,100829.50
2023-05-05T15:25:26.481Z,100829.47
2023-05-05T15:27:54.253Z,100817.16
2023-05-05T15:30:22.058Z,100824.75
2023-05-05T15:32:51.283Z,100819.19
2023-05-05T15:35:19.136Z,100821.72
2023-05-05T15:37:46.956Z,100817.63
2023-05-05T15:40:14.874Z,100827.38
2023-05-05T15:42:42.671Z,100831.56
2023-05-05T15:45:13.067Z,100831.56
2023-05-05T15:47:40.935Z,100828.69
2023-05-05T15:50:11.015Z,100828.88
2023-05-05T15:52:38.851Z,100832.53
2023-05-05T15:55:07.917Z,100833.78
2023-05-05T15:57:36.322Z,100837.19
2023-05-05T16:00:04.750Z,100839.75
2023-05-05T16:02:32.608Z,100834.41
2023-05-05T16:05:00.953Z,100827.50
2023-05-05T16:07:30.113Z,100823.94
2023-05-05T16:09:57.890Z,100836.41
2023-05-05T16:12:25.707Z,100832.91
2023-05-05T16:14:53.768Z,100837.97
2023-05-05T16:17:22.364Z,100823.84
2023-05-05T16:19:50.412Z,100819.00
2023-05-05T16:22:18.385Z,100806.19
2023-05-05T16:24:47.616Z,100803.78
2023-05-05T16:27:16.476Z,100800.22
2023-05-05T16:29:44.291Z,100802.38
2023-05-05T16:32:12.155Z,100792.84
2023-05-05T16:34:39.974Z,100794.03
2023-05-05T16:37:07.794Z,100801.78
2023-05-05T16:39:40.197Z,100803.19
2023-05-05T16:42:09.472Z,100798.44
2023-05-05T16:44:37.019Z,100796.66
2023-05-05T16:47:05.041Z,100795.47
2023-05-05T16:49:32.865Z,100795.00
2023-05-05T16:52:00.637Z,100791.53
2023-05-05T16:54:28.479Z,100784.81
2023-05-05T16:56:56.410Z,100798.16
2023-05-05T16:59:25.774Z,100790.88
2023-05-05T17:01:53.709Z,100793.19
2023-05-05T17:04:22.012Z,100794.69
2023-05-05T17:06:49.789Z,100797.47
2023-05-05T17:09:17.688Z,100802.44
2023-05-05T17:11:45.520Z,100797.50
2023-05-05T17:14:13.297Z,100797.88
2023-05-05T17:16:42.611Z,100793.28
2023-05-05T17:19:10.436Z,100793.09
2023-05-05T17:21:38.351Z,100796.09
2023-05-05T17:24:07.138Z,100797.03
2023-05-05T17:26:34.982Z,100803.28
2023-05-05T17:29:02.864Z,100807.88
2023-05-05T17:31:30.787Z,100805.72
2023-05-05T17:34:00.002Z,100807.50
2023-05-05T17:36:27.835Z,100803.88
2023-05-05T17:38:55.610Z,100808.84
2023-05-05T17:41:25.690Z,100799.00
2023-05-05T17:43:53.537Z,100808.16
2023-05-05T17:46:21.382Z,100815.91
2023-05-05T17:48:49.610Z,100823.84
2023-05-05T17:51:18.988Z,100822.81
2023-05-05T17:53:46.817Z,100821.50
2023-05-05T17:56:14.677Z,100827.09
2023-05-05T17:58:42.464Z,100820.72
2023-05-05T18:01:13.546Z,100830.38
2023-05-05T18:03:42.046Z,100826.16
2023-05-05T18:06:09.885Z,100824.78
2023-05-05T18:08:39.147Z,100823.16
2023-05-05T18:11:06.995Z,100822.22
2023-05-05T18:13:36.680Z,100826.47
2023-05-05T18:16:04.644Z,100819.22
2023-05-05T18:18:32.562Z,100821.56
2023-05-05T18:21:00.473Z,100823.88
2023-05-05T18:23:28.317Z,100820.13
2023-05-05T18:25:59.801Z,100816.38
2023-05-05T18:28:27.633Z,100811.97
2023-05-05T18:30:55.774Z,100812.81
2023-05-05T18:33:23.759Z,100816.97
2023-05-05T18:35:52.088Z,100826.91
2023-05-05T18:38:20.038Z,100826.41
2023-05-05T18:40:48.192Z,100835.75
2023-05-05T18:43:17.613Z,100830.03
2023-05-05T18:45:45.515Z,100836.50
2023-05-05T18:48:13.412Z,100836.84
2023-05-05T18:50:42.430Z,100839.75
2023-05-05T18:53:10.834Z,100839.66
2023-05-05T18:55:38.666Z,100837.69
2023-05-05T18:58:06.481Z,100840.56
2023-05-05T19:00:35.775Z,100836.44
2023-05-05T19:03:03.814Z,100835.69
2023-05-05T19:05:31.613Z,100838.41
2023-05-05T19:07:59.673Z,100835.03
2023-05-05T19:10:27.618Z,100835.22
2023-05-05T19:12:55.741Z,100830.94
2023-05-05T19:15:23.900Z,100836.81
2023-05-05T19:17:53.753Z,100836.59
2023-05-05T19:20:22.018Z,100836.00
2023-05-05T19:22:50.092Z,100843.28
2023-05-05T19:25:18.216Z,100837.59
2023-05-05T19:27:46.022Z,100850.78
2023-05-05T19:30:14.198Z,100851.88
2023-05-05T19:32:42.092Z,100848.84
2023-05-05T19:35:12.025Z,100850.88
2023-05-05T19:37:40.279Z,100867.66
2023-05-05T19:40:09.473Z,100865.22
2023-05-05T19:42:37.453Z,100868.06
2023-05-05T19:45:05.975Z,100865.72
2023-05-05T19:47:33.906Z,100866.91
2023-05-05T19:50:01.755Z,100870.53
2023-05-05T19:52:30.958Z,100873.41
2023-05-05T19:54:59.275Z,100866.47
2023-05-05T19:57:27.582Z,100878.69
2023-05-05T19:59:55.397Z,100879.03
2023-05-05T20:02:26.427Z,100875.66
2023-05-05T20:04:54.393Z,100867.00
2023-05-05T20:07:22.675Z,100860.16
2023-05-05T20:09:51.913Z,100864.78
2023-05-05T20:12:21.468Z,100873.19
2023-05-05T20:14:49.289Z,100870.50
2023-05-05T20:17:20.233Z,100869.81
2023-05-05T20:19:48.592Z,100876.19
2023-05-05T20:22:16.438Z,100875.84
2023-05-05T20:24:44.324Z,100870.91
2023-05-05T20:27:13.546Z,100872.16
2023-05-05T20:29:41.161Z,100873.09
2023-05-05T20:32:08.972Z,100869.06
2023-05-05T20:34:37.630Z,100872.88
2023-05-05T20:37:05.572Z,100872.22
2023-05-05T20:39:33.550Z,100868.28
2023-05-05T20:42:01.331Z,100870.91
2023-05-05T20:44:30.858Z,100865.59
2023-05-05T20:46:58.827Z,100867.09
2023-05-05T20:49:26.860Z,100870.19
2023-05-05T20:51:54.937Z,100869.63
2023-05-05T20:54:22.785Z,100874.34
2023-05-05T20:56:50.814Z,100878.06
2023-05-05T20:59:18.624Z,100877.34
2023-05-05T21:01:47.823Z,100873.91
2023-05-05T21:04:15.706Z,100867.31
2023-05-05T21:06:43.536Z,100873.97
2023-05-05T21:09:11.647Z,100870.41
2023-05-05T21:11:39.543Z,100861.44
2023-05-05T21:14:07.444Z,100869.75
2023-05-05T21:16:35.378Z,100870.53
2023-05-05T21:19:04.546Z,100876.94
2023-05-05T21:21:32.733Z,100865.25
2023-05-05T21:24:00.699Z,100874.44
2023-05-05T21:26:28.505Z,100871.25
2023-05-05T21:28:56.450Z,100873.31
2023-05-05T21:31:24.315Z,100872.66
2023-05-05T21:33:52.245Z,100872.03
2023-05-05T21:36:21.389Z,100870.47
2023-05-05T21:38:48.950Z,100867.47
2023-05-05T21:41:16.816Z,100865.13
2023-05-05T21:43:44.625Z,100863.31
2023-05-05T21:46:13.028Z,100862.53
2023-05-05T21:48:41.428Z,100872.31
2023-05-05T21:51:09.229Z,100865.41
2023-05-05T21:53:38.931Z,100877.50
2023-05-05T21:56:07.931Z,100873.84
2023-05-05T21:58:35.876Z,100872.66
2023-05-05T22:01:03.831Z,100868.91
2023-05-05T22:03:31.945Z,100867.81
2023-05-05T22:05:59.920Z,100864.97
2023-05-05T22:08:27.795Z,100867.38
2023-05-05T22:10:56.965Z,100857.72
2023-05-05T22:13:24.625Z,100865.41
2023-05-05T22:15:52.506Z,100864.00
2023-05-05T22:18:20.295Z,100870.75
2023-05-05T22:20:48.113Z,100870.34
2023-05-05T22:23:16.517Z,100868.97
2023-05-05T22:25:44.682Z,100868.19
2023-05-05T22:28:13.860Z,100872.44
2023-05-05T22:30:41.432Z,100874.31
2023-05-05T22:33:09.215Z,100873.00
2023-05-05T22:35:38.177Z,100878.84
2023-05-05T22:38:06.180Z,100871.66
2023-05-05T22:40:34.107Z,100873.13
2023-05-05T22:43:01.926Z,100876.38
2023-05-05T22:45:31.180Z,100871.88
2023-05-05T22:47:58.881Z,100877.38
2023-05-05T22:50:26.764Z,100873.56
2023-05-05T22:52:54.653Z,100880.34
2023-05-05T22:55:24.389Z,100878.38
2023-05-05T22:57:52.529Z,100871.31
2023-05-05T23:00:23.612Z,100873.78
2023-05-05T23:02:52.942Z,100868.31
2023-05-05T23:05:20.832Z,100875.78
2023-05-05T23:07:48.668Z,100868.75
2023-05-05T23:10:16.828Z,100866.94
2023-05-05T23:12:44.705Z,100862.78
2023-05-05T23:15:12.923Z,100858.03
2023-05-05T23:17:43.374Z,100862.88
2023-05-05T23:20:13.286Z,100864.13
2023-05-05T23:22:41.140Z,100863.50
2023-05-05T23:25:20.360Z,100863.94
2023-05-05T23:27:48.418Z,100866.09
2023-05-05T23:30:16.608Z,100869.09
2023-05-05T23:32:45.059Z,100875.50
2023-05-05T23:35:14.338Z,100873.09
2023-05-05T23:37:41.934Z,100870.22
2023-05-05T23:40:11.023Z,100867.59
2023-05-05T23:42:38.808Z,100870.38
2023-05-05T23:45:07.562Z,100868.78
2023-05-05T23:47:35.421Z,100867.09
2023-05-05T23:50:03.570Z,100869.69
2023-05-05T23:52:32.736Z,100873.06
2023-05-05T23:55:00.494Z,100858.31
2023-05-05T23:57:28.250Z,100859.09
2023-05-05T23:59:56.094Z,100860.91
